createdAt,value
2022-10-18T00:01:07.929Z,101381.20
2022-10-18T00:03:19.201Z,101384.71
2022-10-18T00:05:25.388Z,101383.38
2022-10-18T00:07:31.886Z,101382.69
2022-10-18T00:09:38.189Z,101382.91
2022-10-18T00:11:44.448Z,101385.31
2022-10-18T00:13:50.619Z,101383.20
2022-10-18T00:16:00.201Z,101381.00
2022-10-18T00:18:06.830Z,101383.00
2022-10-18T00:20:13.837Z,101379.44
2022-10-18T00:22:20.045Z,101379.11
2022-10-18T00:24:26.339Z,101377.97
2022-10-18T00:26:33.292Z,101381.19
2022-10-18T00:28:40.707Z,101382.43
2022-10-18T00:30:47.238Z,101381.65
2022-10-18T00:32:54.047Z,101388.80
2022-10-18T00:35:00.488Z,101384.52
2022-10-18T00:37:06.976Z,101388.17
2022-10-18T00:39:18.454Z,101384.11
2022-10-18T00:41:28.544Z,101390.58
2022-10-18T00:43:51.860Z,101387.88
2022-10-18T00:45:58.190Z,101393.41
2022-10-18T00:48:06.842Z,101395.02
2022-10-18T00:50:13.966Z,101394.95
2022-10-18T00:52:43.569Z,101395.78
2022-10-18T00:54:51.522Z,101392.31
2022-10-18T00:56:58.614Z,101389.73
2022-10-18T00:59:05.052Z,101390.95
2022-10-18T01:01:11.199Z,101386.94
2022-10-18T01:03:17.563Z,101392.98
2022-10-18T01:05:23.634Z,101386.04
2022-10-18T01:07:52.092Z,101383.84
2022-10-18T01:10:16.516Z,101384.71
2022-10-18T01:12:26.243Z,101389.23
2022-10-18T01:14:56.583Z,101386.89
2022-10-18T01:17:06.074Z,101391.52
2022-10-18T01:19:20.769Z,101389.67
2022-10-18T01:21:55.097Z,101388.05
2022-10-18T01:24:16.497Z,101390.73
2022-10-18T01:26:25.197Z,101394.54
2022-10-18T01:28:58.985Z,101393.55
2022-10-18T01:31:13.798Z,101398.70
2022-10-18T01:33:27.835Z,101400.32
2022-10-18T01:35:37.861Z,101403.03
2022-10-18T01:37:47.917Z,101400.63
2022-10-18T01:39:58.173Z,101401.91
2022-10-18T01:42:10.524Z,101404.27
2022-10-18T01:44:22.341Z,101411.80
2022-10-18T01:46:31.526Z,101410.63
2022-10-18T01:48:39.475Z,101410.48
2022-10-18T01:50:46.284Z,101412.73
2022-10-18T01:52:53.314Z,101412.63
2022-10-18T01:55:02.226Z,101417.17
2022-10-18T01:57:34.997Z,101419.08
2022-10-18T02:00:03.543Z,101421.91
2022-10-18T02:02:55.042Z,101422.41
2022-10-18T02:05:21.265Z,101424.36
2022-10-18T02:07:51.896Z,101425.95
2022-10-18T02:10:19.562Z,101430.04
2022-10-18T02:12:27.328Z,101435.05
2022-10-18T02:14:34.888Z,101437.13
2022-10-18T02:16:46.885Z,101438.44
2022-10-18T02:19:12.044Z,101440.98
2022-10-18T02:21:21.228Z,101445.83
2022-10-18T02:23:27.975Z,101450.02
2022-10-18T02:25:36.503Z,101448.33
2022-10-18T02:27:42.867Z,101449.72
2022-10-18T02:29:50.542Z,101450.09
2022-10-18T02:32:13.037Z,101445.86
2022-10-18T02:34:30.518Z,101448.21
2022-10-18T02:36:48.251Z,101451.45
2022-10-18T02:39:04.233Z,101449.98
2022-10-18T02:41:10.699Z,101446.98
2022-10-18T02:43:17.089Z,101448.36
2022-10-18T02:45:24.037Z,101449.98
2022-10-18T02:47:30.908Z,101450.32
2022-10-18T02:49:37.550Z,101447.96
2022-10-18T02:51:43.916Z,101446.66
2022-10-18T02:53:50.435Z,101444.15
2022-10-18T02:55:57.179Z,101451.42
2022-10-18T02:58:03.581Z,101447.23
2022-10-18T03:00:11.155Z,101448.16
2022-10-18T03:02:17.460Z,101446.36
2022-10-18T03:04:24.103Z,101449.96
2022-10-18T03:06:30.202Z,101451.90
2022-10-18T03:08:37.801Z,101457.08
2022-10-18T03:10:46.857Z,101458.49
2022-10-18T03:12:52.963Z,101457.16
2022-10-18T03:14:58.942Z,101455.83
2022-10-18T03:17:05.222Z,101459.56
2022-10-18T03:19:11.533Z,101462.29
2022-10-18T03:21:18.097Z,101467.74
2022-10-18T03:23:24.488Z,101466.73
2022-10-18T03:25:30.618Z,101465.87
2022-10-18T03:27:36.710Z,101467.45
2022-10-18T03:29:42.885Z,101466.42
2022-10-18T03:31:49.748Z,101467.61
2022-10-18T03:33:55.710Z,101472.61
2022-10-18T03:36:02.052Z,101469.20
2022-10-18T03:38:08.125Z,101471.73
2022-10-18T03:40:14.109Z,101474.04
2022-10-18T03:42:20.712Z,101477.98
2022-10-18T03:44:27.248Z,101477.11
2022-10-18T03:46:33.431Z,101480.04
2022-10-18T03:48:39.697Z,101481.11
2022-10-18T03:50:45.648Z,101480.77
2022-10-18T03:52:51.837Z,101478.71
2022-10-18T03:54:57.935Z,101480.45
2022-10-18T03:57:04.073Z,101487.30
2022-10-18T03:59:10.167Z,101491.03
2022-10-18T04:01:16.659Z,101493.06
2022-10-18T04:03:25.157Z,101495.52
2022-10-18T04:05:32.464Z,101495.75
2022-10-18T04:07:39.062Z,101496.44
2022-10-18T04:09:45.495Z,101498.40
2022-10-18T04:11:52.491Z,101500.44
2022-10-18T04:13:58.979Z,101502.24
2022-10-18T04:16:05.163Z,101501.90
2022-10-18T04:18:11.509Z,101504.88
2022-10-18T04:20:18.079Z,101501.05
2022-10-18T04:22:24.512Z,101504.13
2022-10-18T04:24:30.531Z,101500.61
2022-10-18T04:26:36.667Z,101500.11
2022-10-18T04:28:43.495Z,101498.09
2022-10-18T04:30:54.572Z,101496.09
2022-10-18T04:33:01.141Z,101500.48
2022-10-18T04:35:08.875Z,101502.86
2022-10-18T04:37:14.983Z,101508.45
2022-10-18T04:39:21.430Z,101514.44
2022-10-18T04:41:27.662Z,101514.90
2022-10-18T04:43:33.773Z,101516.45
2022-10-18T04:45:39.856Z,101517.85
2022-10-18T04:47:46.360Z,101519.16
2022-10-18T04:49:52.518Z,101517.40
2022-10-18T04:51:59.068Z,101520.91
2022-10-18T04:54:05.234Z,101524.77
2022-10-18T04:56:11.891Z,101534.45
2022-10-18T04:58:19.422Z,101543.34
2022-10-18T05:00:25.586Z,101546.71
2022-10-18T05:02:32.125Z,101546.04
2022-10-18T05:04:38.400Z,101552.09
2022-10-18T05:06:45.078Z,101548.88
2022-10-18T05:08:51.572Z,101545.97
2022-10-18T05:10:57.872Z,101549.72
2022-10-18T05:13:05.207Z,101547.61
2022-10-18T05:15:11.768Z,101549.72
2022-10-18T05:17:17.909Z,101551.87
2022-10-18T05:19:24.203Z,101553.18
2022-10-18T05:21:30.192Z,101555.80
2022-10-18T05:23:36.420Z,101558.32
2022-10-18T05:25:43.897Z,101556.38
2022-10-18T05:27:50.544Z,101562.76
2022-10-18T05:29:58.943Z,101564.55
2022-10-18T05:32:07.716Z,101562.23
2022-10-18T05:34:14.842Z,101564.08
2022-10-18T05:36:21.303Z,101567.23
2022-10-18T05:38:27.815Z,101565.04
2022-10-18T05:40:40.005Z,101563.74
2022-10-18T05:42:47.248Z,101568.69
2022-10-18T05:44:53.944Z,101568.09
2022-10-18T05:46:59.964Z,101572.10
2022-10-18T05:49:06.620Z,101577.20
2022-10-18T05:51:12.897Z,101581.42
2022-10-18T05:53:35.750Z,101585.04
2022-10-18T05:55:43.182Z,101586.39
2022-10-18T05:57:52.469Z,101581.79
2022-10-18T05:59:59.323Z,101582.16
2022-10-18T06:02:06.030Z,101580.40
2022-10-18T06:04:12.346Z,101579.73
2022-10-18T06:06:18.906Z,101580.49
2022-10-18T06:08:25.502Z,101583.13
2022-10-18T06:10:32.077Z,101587.05
2022-10-18T06:12:38.153Z,101590.44
2022-10-18T06:14:45.480Z,101591.70
2022-10-18T06:16:51.930Z,101597.77
2022-10-18T06:19:00.935Z,101596.48
2022-10-18T06:21:07.841Z,101595.63
2022-10-18T06:23:13.960Z,101592.98
2022-10-18T06:25:19.888Z,101594.42
2022-10-18T06:27:25.970Z,101591.16
2022-10-18T06:29:32.549Z,101588.78
2022-10-18T06:31:38.686Z,101584.56
2022-10-18T06:33:46.719Z,101584.44
2022-10-18T06:35:58.087Z,101586.52
2022-10-18T06:38:04.320Z,101589.23
2022-10-18T06:40:11.391Z,101592.58
2022-10-18T06:42:19.175Z,101589.45
2022-10-18T06:44:28.108Z,101591.38
2022-10-18T06:46:35.008Z,101592.99
2022-10-18T06:48:42.433Z,101592.14
2022-10-18T06:51:03.199Z,101592.82
2022-10-18T06:53:10.089Z,101589.79
2022-10-18T06:55:16.509Z,101589.38
2022-10-18T06:57:23.595Z,101591.10
2022-10-18T06:59:32.726Z,101590.14
2022-10-18T07:01:41.005Z,101587.42
2022-10-18T07:03:49.027Z,101580.98
2022-10-18T07:05:55.287Z,101580.48
2022-10-18T07:08:01.441Z,101576.75
2022-10-18T07:10:11.185Z,101574.15
2022-10-18T07:12:19.935Z,101572.45
2022-10-18T07:14:29.019Z,101574.77
2022-10-18T07:16:36.296Z,101574.23
2022-10-18T07:18:44.988Z,101574.75
2022-10-18T07:20:50.961Z,101574.05
2022-10-18T07:23:00.655Z,101571.61
2022-10-18T07:25:08.181Z,101574.63
2022-10-18T07:27:15.126Z,101575.98
2022-10-18T07:29:21.892Z,101574.46
2022-10-18T07:31:28.960Z,101576.41
2022-10-18T07:33:36.630Z,101576.42
2022-10-18T07:35:43.009Z,101579.14
2022-10-18T07:37:49.700Z,101579.86
2022-10-18T07:39:56.386Z,101575.39
2022-10-18T07:42:02.436Z,101578.42
2022-10-18T07:44:09.415Z,101581.15
2022-10-18T07:46:16.641Z,101581.75
2022-10-18T07:48:23.629Z,101579.25
2022-10-18T07:50:29.716Z,101583.36
2022-10-18T07:52:35.880Z,101577.64
2022-10-18T07:54:42.177Z,101581.88
2022-10-18T07:56:48.564Z,101579.17
2022-10-18T07:58:56.850Z,101585.35
2022-10-18T08:01:08.385Z,101581.69
2022-10-18T08:03:14.784Z,101586.13
2022-10-18T08:05:21.055Z,101585.72
2022-10-18T08:07:27.437Z,101585.98
2022-10-18T08:09:34.046Z,101585.70
2022-10-18T08:11:40.690Z,101586.35
2022-10-18T08:13:47.008Z,101586.50
2022-10-18T08:16:00.763Z,101589.77
2022-10-18T08:18:07.089Z,101587.48
2022-10-18T08:20:29.872Z,101590.41
2022-10-18T08:22:36.799Z,101590.62
2022-10-18T08:24:43.032Z,101589.09
2022-10-18T08:26:51.519Z,101584.90
2022-10-18T08:29:21.155Z,101584.39
2022-10-18T08:31:24.165Z,101592.11
2022-10-18T08:33:30.437Z,101589.16
2022-10-18T08:35:37.170Z,101586.08
2022-10-18T08:37:43.708Z,101587.59
2022-10-18T08:39:49.991Z,101591.21
2022-10-18T08:42:23.721Z,101588.45
2022-10-18T08:44:33.197Z,101593.73
2022-10-18T08:46:45.686Z,101595.34
2022-10-18T08:48:56.506Z,101593.94
2022-10-18T08:51:05.460Z,101593.89
2022-10-18T08:53:25.980Z,101594.79
2022-10-18T08:55:48.312Z,101597.81
2022-10-18T08:57:54.733Z,101601.89
2022-10-18T09:00:01.003Z,101605.30
2022-10-18T09:02:28.356Z,101607.42
2022-10-18T09:04:59.125Z,101610.88
2022-10-18T09:07:40.067Z,101612.77
2022-10-18T09:09:46.184Z,101617.30
2022-10-18T09:12:04.094Z,101626.15
2022-10-18T09:14:19.403Z,101628.27
2022-10-18T09:16:47.088Z,101632.17
2022-10-18T09:19:22.795Z,101635.80
2022-10-18T09:21:59.923Z,101627.89
2022-10-18T09:24:22.196Z,101624.29
2022-10-18T09:26:28.102Z,101619.23
2022-10-18T09:29:12.080Z,101620.45
2022-10-18T09:31:25.795Z,101620.69
2022-10-18T09:33:52.775Z,101625.86
2022-10-18T09:36:03.269Z,101622.86
2022-10-18T09:38:14.487Z,101623.38
2022-10-18T09:40:45.043Z,101623.59
2022-10-18T09:43:01.709Z,101625.45
2022-10-18T09:45:16.971Z,101632.18
2022-10-18T09:48:09.693Z,101633.92
2022-10-18T09:50:31.608Z,101631.69
2022-10-18T09:52:50.823Z,101627.41
2022-10-18T09:55:04.810Z,101629.77
2022-10-18T09:57:29.396Z,101629.88
2022-10-18T09:59:48.431Z,101634.13
2022-10-18T10:01:54.774Z,101633.10
2022-10-18T10:04:00.942Z,101633.43
2022-10-18T10:06:18.044Z,101626.59
2022-10-18T10:08:36.243Z,101620.32
2022-10-18T10:10:49.136Z,101617.16
2022-10-18T10:13:08.632Z,101621.63
2022-10-18T10:15:29.688Z,101619.20
2022-10-18T10:17:39.965Z,101620.07
2022-10-18T10:20:06.409Z,101623.11
2022-10-18T10:22:15.791Z,101623.06
2022-10-18T10:24:46.302Z,101618.38
2022-10-18T10:27:00.102Z,101617.02
2022-10-18T10:29:45.084Z,101616.52
2022-10-18T10:32:04.753Z,101614.02
2022-10-18T10:34:16.706Z,101618.46
2022-10-18T10:36:23.236Z,101615.96
2022-10-18T10:38:31.694Z,101615.58
2022-10-18T10:40:51.479Z,101614.80
2022-10-18T10:43:18.454Z,101617.42
2022-10-18T10:45:56.544Z,101620.39
2022-10-18T10:48:15.634Z,101621.83
2022-10-18T10:50:30.127Z,101622.61
2022-10-18T10:52:36.716Z,101621.00
2022-10-18T10:54:51.345Z,101613.58
2022-10-18T10:57:02.710Z,101607.52
2022-10-18T10:59:10.652Z,101610.63
2022-10-18T11:01:32.856Z,101610.40
2022-10-18T11:03:38.544Z,101613.15
2022-10-18T11:05:47.508Z,101620.10
2022-10-18T11:08:06.831Z,101622.71
2022-10-18T11:10:13.401Z,101621.73
2022-10-18T11:12:26.223Z,101622.83
2022-10-18T11:14:40.429Z,101622.54
2022-10-18T11:17:10.626Z,101627.45
2022-10-18T11:19:40.486Z,101628.83
2022-10-18T11:21:46.971Z,101634.29
2022-10-18T11:23:54.123Z,101633.56
2022-10-18T11:26:15.330Z,101632.98
2022-10-18T11:28:47.675Z,101636.33
2022-10-18T11:31:16.283Z,101638.64
2022-10-18T11:34:08.133Z,101643.70
2022-10-18T11:36:50.397Z,101642.94
2022-10-18T11:39:51.980Z,101641.45
2022-10-18T11:42:04.481Z,101645.52
2022-10-18T11:44:41.714Z,101644.41
2022-10-18T11:47:07.122Z,101648.44
2022-10-18T11:49:50.212Z,101652.13
2022-10-18T11:52:30.947Z,101650.16
2022-10-18T11:55:07.897Z,101648.27
2022-10-18T11:57:25.836Z,101653.87
2022-10-18T11:59:57.834Z,101655.02
2022-10-18T12:02:18.668Z,101649.85
2022-10-18T12:04:35.289Z,101652.63
2022-10-18T12:06:44.561Z,101653.36
2022-10-18T12:09:05.085Z,101653.48
2022-10-18T12:11:23.901Z,101655.64
2022-10-18T12:13:36.411Z,101655.99
2022-10-18T12:15:42.816Z,101658.05
2022-10-18T12:17:54.578Z,101662.08
2022-10-18T12:20:09.343Z,101659.81
2022-10-18T12:22:36.245Z,101662.52
2022-10-18T12:24:43.947Z,101663.30
2022-10-18T12:26:53.226Z,101663.50
2022-10-18T12:28:59.699Z,101667.45
2022-10-18T12:31:15.486Z,101667.43
2022-10-18T12:33:28.840Z,101671.31
2022-10-18T12:36:02.144Z,101668.17
2022-10-18T12:38:39.376Z,101670.25
2022-10-18T12:40:50.564Z,101669.75
2022-10-18T12:42:57.901Z,101673.98
2022-10-18T12:45:21.818Z,101676.41
2022-10-18T12:47:29.605Z,101685.50
2022-10-18T12:49:41.350Z,101687.27
2022-10-18T12:51:56.765Z,101691.58
2022-10-18T12:54:02.736Z,101689.33
2022-10-18T12:56:42.895Z,101689.52
2022-10-18T12:58:49.085Z,101686.39
2022-10-18T13:00:57.547Z,101687.09
2022-10-18T13:03:21.757Z,101690.73
2022-10-18T13:05:54.537Z,101692.30
2022-10-18T13:08:30.272Z,101698.38
2022-10-18T13:10:39.124Z,101700.66
2022-10-18T13:13:39.167Z,101703.73
2022-10-18T13:15:50.688Z,101703.92
2022-10-18T13:17:56.618Z,101702.12
2022-10-18T13:20:26.654Z,101705.80
2022-10-18T13:23:03.026Z,101705.41
2022-10-18T13:26:06.718Z,101711.19
2022-10-18T13:28:43.829Z,101712.24
2022-10-18T13:31:11.785Z,101713.81
2022-10-18T13:33:31.961Z,101716.68
2022-10-18T13:35:53.321Z,101711.61
2022-10-18T13:38:21.738Z,101717.23
2022-10-18T13:40:27.927Z,101721.16
2022-10-18T13:42:35.110Z,101725.95
2022-10-18T13:44:43.028Z,101726.16
2022-10-18T13:46:49.365Z,101726.22
2022-10-18T13:49:01.806Z,101724.02
2022-10-18T13:51:46.381Z,101727.35
2022-10-18T13:54:30.587Z,101736.17
2022-10-18T13:56:54.489Z,101740.19
2022-10-18T13:59:20.102Z,101743.28
2022-10-18T14:01:42.659Z,101747.71
2022-10-18T14:04:01.110Z,101750.64
2022-10-18T14:06:26.676Z,101754.35
2022-10-18T14:08:35.689Z,101754.52
2022-10-18T14:11:02.073Z,101755.05
2022-10-18T14:13:20.006Z,101759.65
2022-10-18T14:15:30.707Z,101762.75
2022-10-18T14:18:01.435Z,101761.34
2022-10-18T14:20:24.749Z,101767.20
2022-10-18T14:22:42.815Z,101765.67
2022-10-18T14:24:55.285Z,101764.34
2022-10-18T14:27:24.271Z,101770.86
2022-10-18T14:29:31.004Z,101774.98
2022-10-18T14:31:37.202Z,101776.56
2022-10-18T14:33:57.203Z,101778.14
2022-10-18T14:36:36.317Z,101776.38
2022-10-18T14:38:51.378Z,101778.98
2022-10-18T14:41:09.031Z,101783.73
2022-10-18T14:43:20.055Z,101785.16
2022-10-18T14:45:26.412Z,101784.36
2022-10-18T14:47:35.027Z,101790.52
2022-10-18T14:49:46.518Z,101791.27
2022-10-18T14:51:58.090Z,101794.00
2022-10-18T14:54:04.913Z,101794.67
2022-10-18T14:56:24.136Z,101799.70
2022-10-18T14:58:30.495Z,101805.39
2022-10-18T15:00:40.431Z,101805.41
2022-10-18T15:02:48.982Z,101808.33
2022-10-18T15:05:08.631Z,101807.27
2022-10-18T15:07:18.405Z,101810.52
2022-10-18T15:09:25.484Z,101808.73
2022-10-18T15:11:33.014Z,101807.96
2022-10-18T15:14:04.226Z,101809.91
2022-10-18T15:16:19.591Z,101814.84
2022-10-18T15:18:27.763Z,101814.61
2022-10-18T15:20:40.434Z,101815.32
2022-10-18T15:22:50.031Z,101814.20
2022-10-18T15:25:32.327Z,101818.41
2022-10-18T15:29:46.860Z,101821.05
2022-10-18T15:31:53.995Z,101824.41
2022-10-18T15:34:29.325Z,101828.27
2022-10-18T15:36:37.025Z,101831.95
2022-10-18T15:38:46.300Z,101832.90
2022-10-18T15:40:56.006Z,101831.98
2022-10-18T15:43:05.402Z,101837.39
2022-10-18T15:45:26.986Z,101843.15
2022-10-18T15:47:33.400Z,101841.13
2022-10-18T15:49:48.435Z,101841.58
2022-10-18T15:52:23.650Z,101842.30
2022-10-18T15:54:33.570Z,101844.50
2022-10-18T15:56:47.501Z,101839.64
2022-10-18T15:58:53.871Z,101848.98
2022-10-18T16:01:02.984Z,101850.05
2022-10-18T16:03:10.604Z,101852.55
2022-10-18T16:05:22.188Z,101857.28
2022-10-18T16:07:28.558Z,101860.07
2022-10-18T16:09:34.679Z,101858.66
2022-10-18T16:11:40.855Z,101864.97
2022-10-18T16:13:47.628Z,101866.98
2022-10-18T16:15:56.764Z,101867.09
2022-10-18T16:18:03.203Z,101865.15
2022-10-18T16:20:21.699Z,101864.90
2022-10-18T16:22:27.751Z,101862.16
2022-10-18T16:24:34.294Z,101868.16
2022-10-18T16:26:40.374Z,101869.80
2022-10-18T16:28:47.972Z,101872.63
2022-10-18T16:30:55.953Z,101871.73
2022-10-18T16:33:01.859Z,101872.27
2022-10-18T16:35:09.413Z,101870.27
2022-10-18T16:37:15.639Z,101868.77
2022-10-18T16:39:23.534Z,101869.45
2022-10-18T16:41:30.490Z,101871.80
2022-10-18T16:43:37.127Z,101869.05
2022-10-18T16:45:43.892Z,101871.73
2022-10-18T16:47:49.868Z,101870.11
2022-10-18T16:49:56.070Z,101875.23
2022-10-18T16:52:02.206Z,101876.38
2022-10-18T16:54:08.311Z,101875.02
2022-10-18T16:56:31.933Z,101873.38
2022-10-18T16:58:38.009Z,101870.84
2022-10-18T17:00:44.166Z,101871.05
2022-10-18T17:02:51.587Z,101870.57
2022-10-18T17:04:58.197Z,101868.92
2022-10-18T17:07:06.118Z,101869.55
2022-10-18T17:09:15.753Z,101865.73
2022-10-18T17:11:24.169Z,101868.77
2022-10-18T17:13:30.289Z,101870.13
2022-10-18T17:15:36.762Z,101872.50
2022-10-18T17:17:43.011Z,101866.80
2022-10-18T17:19:49.162Z,101860.96
2022-10-18T17:21:58.898Z,101863.58
2022-10-18T17:24:08.322Z,101858.92
2022-10-18T17:26:28.749Z,101858.21
2022-10-18T17:28:35.745Z,101856.33
2022-10-18T17:30:43.085Z,101854.88
2022-10-18T17:32:49.508Z,101858.96
2022-10-18T17:34:56.062Z,101857.03
2022-10-18T17:37:02.138Z,101859.17
2022-10-18T17:39:08.912Z,101859.20
2022-10-18T17:41:15.460Z,101862.35
2022-10-18T17:43:21.620Z,101859.26
2022-10-18T17:45:28.074Z,101859.52
2022-10-18T17:47:34.356Z,101858.81
2022-10-18T17:49:40.522Z,101857.48
2022-10-18T17:51:47.467Z,101855.88
2022-10-18T17:53:53.566Z,101859.66
2022-10-18T17:56:02.588Z,101858.92
2022-10-18T17:58:09.196Z,101862.41
2022-10-18T18:00:16.642Z,101862.61
2022-10-18T18:02:22.984Z,101867.20
2022-10-18T18:04:29.153Z,101866.06
2022-10-18T18:06:38.023Z,101867.77
2022-10-18T18:08:44.363Z,101862.70
2022-10-18T18:10:56.593Z,101865.16
2022-10-18T18:13:03.914Z,101862.44
2022-10-18T18:15:10.395Z,101862.48
2022-10-18T18:17:24.801Z,101861.79
2022-10-18T18:19:40.801Z,101859.22
2022-10-18T18:21:47.423Z,101857.46
2022-10-18T18:23:53.948Z,101853.85
2022-10-18T18:26:00.164Z,101852.77
2022-10-18T18:28:07.613Z,101855.48
2022-10-18T18:30:14.080Z,101859.63
2022-10-18T18:32:20.851Z,101864.00
2022-10-18T18:34:27.605Z,101867.71
2022-10-18T18:36:34.201Z,101868.95
2022-10-18T18:38:43.608Z,101868.36
2022-10-18T18:40:50.386Z,101868.66
2022-10-18T18:43:07.182Z,101871.13
2022-10-18T18:45:23.807Z,101870.77
2022-10-18T18:47:30.345Z,101870.02
2022-10-18T18:49:37.004Z,101869.08
2022-10-18T18:51:43.950Z,101869.19
2022-10-18T18:53:50.602Z,101872.91
2022-10-18T18:56:01.784Z,101869.86
2022-10-18T18:58:08.178Z,101872.29
2022-10-18T19:00:15.119Z,101866.70
2022-10-18T19:02:21.517Z,101869.64
2022-10-18T19:04:27.966Z,101867.27
2022-10-18T19:06:45.297Z,101865.84
2022-10-18T19:08:55.236Z,101863.80
2022-10-18T19:11:01.732Z,101868.59
2022-10-18T19:13:08.392Z,101862.98
2022-10-18T19:15:14.494Z,101864.23
2022-10-18T19:17:22.768Z,101861.86
2022-10-18T19:19:31.758Z,101860.05
2022-10-18T19:21:43.094Z,101862.24
2022-10-18T19:23:49.749Z,101860.23
2022-10-18T19:25:56.098Z,101862.98
2022-10-18T19:28:02.689Z,101859.35
2022-10-18T19:30:13.673Z,101851.02
2022-10-18T19:32:20.315Z,101854.55
2022-10-18T19:34:28.700Z,101849.84
2022-10-18T19:36:35.749Z,101851.11
2022-10-18T19:38:42.062Z,101855.27
2022-10-18T19:40:51.591Z,101855.44
2022-10-18T19:43:00.196Z,101847.09
2022-10-18T19:45:07.003Z,101849.15
2022-10-18T19:47:15.394Z,101847.38
2022-10-18T19:49:21.657Z,101844.09
2022-10-18T19:51:28.644Z,101840.73
2022-10-18T19:53:35.905Z,101834.95
2022-10-18T19:55:42.483Z,101835.73
2022-10-18T19:57:49.181Z,101833.15
2022-10-18T19:59:56.679Z,101831.37
2022-10-18T20:02:05.591Z,101830.52
2022-10-18T20:04:13.459Z,101828.80
2022-10-18T20:06:20.630Z,101826.83
2022-10-18T20:08:28.833Z,101826.66
2022-10-18T20:10:35.454Z,101824.30
2022-10-18T20:12:41.485Z,101819.40
2022-10-18T20:14:47.703Z,101820.69
2022-10-18T20:16:54.524Z,101822.30
2022-10-18T20:19:03.320Z,101817.71
2022-10-18T20:21:10.714Z,101810.30
2022-10-18T20:23:18.188Z,101820.54
2022-10-18T20:25:24.795Z,101819.84
2022-10-18T20:27:33.150Z,101818.90
2022-10-18T20:29:39.651Z,101815.55
2022-10-18T20:31:45.695Z,101820.73
2022-10-18T20:34:06.629Z,101818.91
2022-10-18T20:36:18.676Z,101810.95
2022-10-18T20:38:24.802Z,101806.16
2022-10-18T20:40:30.860Z,101808.12
2022-10-18T20:42:36.997Z,101804.07
2022-10-18T20:44:44.557Z,101802.39
2022-10-18T20:46:51.200Z,101801.80
2022-10-18T20:48:58.130Z,101799.55
2022-10-18T20:51:10.306Z,101797.54
2022-10-18T20:53:17.374Z,101792.98
2022-10-18T20:55:24.491Z,101791.02
2022-10-18T20:57:34.275Z,101790.59
2022-10-18T20:59:43.553Z,101786.77
2022-10-18T21:01:49.945Z,101787.23
2022-10-18T21:03:58.580Z,101785.49
2022-10-18T21:06:10.502Z,101788.62
2022-10-18T21:08:17.216Z,101780.11
2022-10-18T21:10:24.769Z,101772.86
2022-10-18T21:12:31.415Z,101768.54
2022-10-18T21:14:37.527Z,101764.70
2022-10-18T21:16:44.815Z,101766.91
2022-10-18T21:18:51.249Z,101763.51
2022-10-18T21:21:08.010Z,101759.13
2022-10-18T21:23:14.117Z,101751.13
2022-10-18T21:25:20.494Z,101751.02
2022-10-18T21:27:26.617Z,101745.51
2022-10-18T21:29:32.565Z,101752.41
2022-10-18T21:31:40.923Z,101750.17
2022-10-18T21:33:48.580Z,101748.33
2022-10-18T21:35:54.751Z,101745.76
2022-10-18T21:38:01.018Z,101740.33
2022-10-18T21:40:07.756Z,101740.08
2022-10-18T21:42:14.887Z,101740.46
2022-10-18T21:44:21.403Z,101741.66
2022-10-18T21:46:28.158Z,101738.09
2022-10-18T21:48:34.258Z,101736.99
2022-10-18T21:50:40.753Z,101731.77
2022-10-18T21:52:47.598Z,101729.52
2022-10-18T21:54:54.752Z,101726.90
2022-10-18T21:57:00.843Z,101732.56
2022-10-18T21:59:07.283Z,101729.00
2022-10-18T22:01:22.231Z,101730.05
2022-10-18T22:03:28.538Z,101727.38
2022-10-18T22:05:34.792Z,101723.80
2022-10-18T22:07:41.167Z,101719.88
2022-10-18T22:09:47.501Z,101716.73
2022-10-18T22:11:55.418Z,101714.69
2022-10-18T22:14:01.934Z,101710.42
2022-10-18T22:16:09.588Z,101710.02
2022-10-18T22:18:15.667Z,101708.20
2022-10-18T22:20:22.811Z,101711.81
2022-10-18T22:22:29.688Z,101712.92
2022-10-18T22:26:48.360Z,101718.52
2022-10-18T22:29:04.261Z,101718.64
2022-10-18T22:31:23.941Z,101713.58
2022-10-18T22:33:31.142Z,101710.98
2022-10-18T22:35:37.281Z,101709.38
2022-10-18T22:37:43.508Z,101708.92
2022-10-18T22:39:49.716Z,101706.29
2022-10-18T22:41:57.815Z,101703.86
2022-10-18T22:44:04.430Z,101701.88
2022-10-18T22:46:16.244Z,101704.44
2022-10-18T22:48:22.625Z,101698.80
2022-10-18T22:50:29.012Z,101698.49
2022-10-18T22:52:36.341Z,101699.45
2022-10-18T22:54:43.548Z,101702.88
2022-10-18T22:56:50.623Z,101699.13
2022-10-18T22:58:57.966Z,101697.76
2022-10-18T23:01:12.098Z,101697.35
2022-10-18T23:03:20.131Z,101695.94
2022-10-18T23:05:27.232Z,101696.42
2022-10-18T23:07:33.436Z,101696.66
2022-10-18T23:11:54.435Z,101699.61
2022-10-18T23:14:02.192Z,101702.73
2022-10-18T23:16:08.945Z,101703.13
2022-10-18T23:18:15.551Z,101705.29
2022-10-18T23:21:14.325Z,101707.55
2022-10-18T23:23:46.028Z,101710.09
2022-10-18T23:25:55.812Z,101716.09
2022-10-18T23:28:06.788Z,101716.30
2022-10-18T23:30:13.907Z,101712.58
2022-10-18T23:32:21.461Z,101706.73
2022-10-18T23:34:30.263Z,101700.66
2022-10-18T23:36:40.391Z,101706.58
2022-10-18T23:38:48.289Z,101704.39
2022-10-18T23:40:55.673Z,101706.12
2022-10-18T23:43:02.825Z,101705.73
2022-10-18T23:45:12.065Z,101706.83
2022-10-18T23:47:19.974Z,101706.30
2022-10-18T23:49:29.337Z,101704.07
2022-10-18T23:51:36.245Z,101700.16
2022-10-18T23:53:43.226Z,101698.91
2022-10-18T23:56:06.876Z,101697.52
2022-10-18T23:58:14.097Z,101695.39
